sensor_id;sensor_type;location;lat;lon;timestamp;P1;durP1;ratioP1;P2;durP2;ratioP2
9823;SDS011;4951;50.778;7.196;2022-11-20T00:00:21;15.00;;;13.40;;
9823;SDS011;4951;50.778;7.196;2022-11-20T00:02:49;15.30;;;13.70;;
9823;SDS011;4951;50.778;7.196;2022-11-20T00:05:16;16.40;;;13.80;;
9823;SDS011;4951;50.778;7.196;2022-11-20T00:07:44;14.27;;;12.27;;
9823;SDS011;4951;50.778;7.196;2022-11-20T00:10:11;14.30;;;12.73;;
9823;SDS011;4951;50.778;7.196;2022-11-20T00:12:39;15.03;;;13.07;;
9823;SDS011;4951;50.778;7.196;2022-11-20T00:15:07;14.87;;;13.27;;
9823;SDS011;4951;50.778;7.196;2022-11-20T00:17:35;16.67;;;14.00;;
9823;SDS011;4951;50.778;7.196;2022-11-20T00:20:04;15.70;;;13.97;;
9823;SDS011;4951;50.778;7.196;2022-11-20T00:22:33;15.87;;;14.20;;
9823;SDS011;4951;50.778;7.196;2022-11-20T00:25:00;14.40;;;12.83;;
9823;SDS011;4951;50.778;7.196;2022-11-20T00:27:28;14.53;;;12.70;;
9823;SDS011;4951;50.778;7.196;2022-11-20T00:29:55;14.13;;;12.53;;
9823;SDS011;4951;50.778;7.196;2022-11-20T00:32:23;16.07;;;13.17;;
9823;SDS011;4951;50.778;7.196;2022-11-20T00:34:50;16.40;;;13.13;;
9823;SDS011;4951;50.778;7.196;2022-11-20T00:37:18;14.77;;;13.13;;
9823;SDS011;4951;50.778;7.196;2022-11-20T00:39:45;17.27;;;13.53;;
9823;SDS011;4951;50.778;7.196;2022-11-20T00:42:13;15.70;;;13.93;;
9823;SDS011;4951;50.778;7.196;2022-11-20T00:44:40;16.30;;;13.27;;
9823;SDS011;4951;50.778;7.196;2022-11-20T00:47:07;16.00;;;13.57;;
9823;SDS011;4951;50.778;7.196;2022-11-20T00:49:35;14.90;;;13.27;;
9823;SDS011;4951;50.778;7.196;2022-11-20T00:52:02;16.03;;;14.20;;
9823;SDS011;4951;50.778;7.196;2022-11-20T00:54:31;13.43;;;11.53;;
9823;SDS011;4951;50.778;7.196;2022-11-20T00:56:58;16.70;;;14.23;;
9823;SDS011;4951;50.778;7.196;2022-11-20T00:59:26;14.70;;;13.10;;
9823;SDS011;4951;50.778;7.196;2022-11-20T01:01:53;14.93;;;12.73;;
9823;SDS011;4951;50.778;7.196;2022-11-20T01:04:24;15.33;;;13.73;;
9823;SDS011;4951;50.778;7.196;2022-11-20T01:06:52;15.17;;;13.57;;
9823;SDS011;4951;50.778;7.196;2022-11-20T01:09:19;15.70;;;13.53;;
9823;SDS011;4951;50.778;7.196;2022-11-20T01:11:47;13.67;;;11.70;;
9823;SDS011;4951;50.778;7.196;2022-11-20T01:14:16;16.20;;;14.50;;
9823;SDS011;4951;50.778;7.196;2022-11-20T01:16:47;18.17;;;14.37;;
9823;SDS011;4951;50.778;7.196;2022-11-20T01:19:17;16.70;;;14.07;;
9823;SDS011;4951;50.778;7.196;2022-11-20T01:21:46;17.33;;;14.50;;
9823;SDS011;4951;50.778;7.196;2022-11-20T01:24:15;14.83;;;13.17;;
9823;SDS011;4951;50.778;7.196;2022-11-20T01:26:48;15.27;;;12.80;;
9823;SDS011;4951;50.778;7.196;2022-11-20T01:29:17;16.47;;;14.33;;
9823;SDS011;4951;50.778;7.196;2022-11-20T01:31:46;17.10;;;13.43;;
9823;SDS011;4951;50.778;7.196;2022-11-20T01:34:14;19.33;;;15.00;;
9823;SDS011;4951;50.778;7.196;2022-11-20T01:36:44;17.17;;;14.63;;
9823;SDS011;4951;50.778;7.196;2022-11-20T01:39:12;17.37;;;14.37;;
9823;SDS011;4951;50.778;7.196;2022-11-20T01:41:41;15.23;;;13.60;;
9823;SDS011;4951;50.778;7.196;2022-11-20T01:44:49;15.50;;;13.33;;
9823;SDS011;4951;50.778;7.196;2022-11-20T01:47:27;16.73;;;14.93;;
9823;SDS011;4951;50.778;7.196;2022-11-20T01:49:59;16.70;;;13.77;;
9823;SDS011;4951;50.778;7.196;2022-11-20T01:52:33;17.50;;;15.50;;
9823;SDS011;4951;50.778;7.196;2022-11-20T01:55:05;16.23;;;13.30;;
9823;SDS011;4951;50.778;7.196;2022-11-20T01:57:35;17.47;;;13.93;;
9823;SDS011;4951;50.778;7.196;2022-11-20T02:00:07;15.70;;;14.00;;
9823;SDS011;4951;50.778;7.196;2022-11-20T02:02:40;15.00;;;13.27;;
9823;SDS011;4951;50.778;7.196;2022-11-20T02:05:12;15.43;;;13.83;;
9823;SDS011;4951;50.778;7.196;2022-11-20T02:07:45;15.10;;;13.40;;
9823;SDS011;4951;50.778;7.196;2022-11-20T02:10:13;16.77;;;14.73;;
9823;SDS011;4951;50.778;7.196;2022-11-20T02:12:41;14.43;;;12.93;;
9823;SDS011;4951;50.778;7.196;2022-11-20T02:15:27;18.00;;;14.57;;
9823;SDS011;4951;50.778;7.196;2022-11-20T02:17:54;15.13;;;13.53;;
9823;SDS011;4951;50.778;7.196;2022-11-20T02:20:22;16.93;;;13.43;;
9823;SDS011;4951;50.778;7.196;2022-11-20T02:22:50;15.30;;;13.20;;
9823;SDS011;4951;50.778;7.196;2022-11-20T02:25:24;15.97;;;13.47;;
9823;SDS011;4951;50.778;7.196;2022-11-20T02:27:53;15.33;;;13.40;;
9823;SDS011;4951;50.778;7.196;2022-11-20T02:30:23;16.00;;;13.63;;
9823;SDS011;4951;50.778;7.196;2022-11-20T02:32:51;16.47;;;14.43;;
9823;SDS011;4951;50.778;7.196;2022-11-20T02:38:19;16.63;;;14.50;;
9823;SDS011;4951;50.778;7.196;2022-11-20T02:40:47;16.47;;;14.67;;
9823;SDS011;4951;50.778;7.196;2022-11-20T02:43:15;18.30;;;15.03;;
9823;SDS011;4951;50.778;7.196;2022-11-20T02:45:42;19.57;;;15.23;;
9823;SDS011;4951;50.778;7.196;2022-11-20T02:48:10;16.77;;;14.80;;
9823;SDS011;4951;50.778;7.196;2022-11-20T02:50:37;17.33;;;15.43;;
9823;SDS011;4951;50.778;7.196;2022-11-20T02:53:05;16.17;;;13.77;;
9823;SDS011;4951;50.778;7.196;2022-11-20T02:55:33;16.43;;;14.70;;
9823;SDS011;4951;50.778;7.196;2022-11-20T02:58:02;18.37;;;15.07;;
9823;SDS011;4951;50.778;7.196;2022-11-20T03:00:29;18.07;;;14.87;;
9823;SDS011;4951;50.778;7.196;2022-11-20T03:02:57;17.73;;;15.83;;
9823;SDS011;4951;50.778;7.196;2022-11-20T03:05:24;17.23;;;14.20;;
9823;SDS011;4951;50.778;7.196;2022-11-20T03:07:51;18.23;;;15.00;;
9823;SDS011;4951;50.778;7.196;2022-11-20T03:10:19;17.30;;;13.87;;
9823;SDS011;4951;50.778;7.196;2022-11-20T03:12:46;17.60;;;15.60;;
9823;SDS011;4951;50.778;7.196;2022-11-20T03:15:14;18.00;;;15.03;;
9823;SDS011;4951;50.778;7.196;2022-11-20T03:17:42;18.30;;;16.03;;
9823;SDS011;4951;50.778;7.196;2022-11-20T03:20:09;18.67;;;16.37;;
9823;SDS011;4951;50.778;7.196;2022-11-20T03:22:37;17.93;;;15.70;;
9823;SDS011;4951;50.778;7.196;2022-11-20T03:25:04;18.40;;;15.87;;
9823;SDS011;4951;50.778;7.196;2022-11-20T03:27:32;17.43;;;15.47;;
9823;SDS011;4951;50.778;7.196;2022-11-20T03:30:00;18.07;;;15.47;;
9823;SDS011;4951;50.778;7.196;2022-11-20T03:32:29;19.27;;;16.50;;
9823;SDS011;4951;50.778;7.196;2022-11-20T03:34:57;18.03;;;15.63;;
9823;SDS011;4951;50.778;7.196;2022-11-20T03:37:24;18.87;;;15.70;;
9823;SDS011;4951;50.778;7.196;2022-11-20T03:39:52;19.00;;;16.30;;
9823;SDS011;4951;50.778;7.196;2022-11-20T03:42:19;18.53;;;16.47;;
9823;SDS011;4951;50.778;7.196;2022-11-20T03:45:04;18.20;;;14.73;;
9823;SDS011;4951;50.778;7.196;2022-11-20T03:47:33;17.87;;;15.37;;
9823;SDS011;4951;50.778;7.196;2022-11-20T03:50:00;20.73;;;17.43;;
9823;SDS011;4951;50.778;7.196;2022-11-20T03:52:27;19.90;;;16.87;;
9823;SDS011;4951;50.778;7.196;2022-11-20T03:54:54;19.77;;;17.60;;
9823;SDS011;4951;50.778;7.196;2022-11-20T03:57:22;20.70;;;17.87;;
9823;SDS011;4951;50.778;7.196;2022-11-20T03:59:49;20.47;;;17.27;;
9823;SDS011;4951;50.778;7.196;2022-11-20T04:02:16;22.87;;;18.37;;
9823;SDS011;4951;50.778;7.196;2022-11-20T04:04:48;21.13;;;17.40;;
9823;SDS011;4951;50.778;7.196;2022-11-20T04:07:17;20.13;;;16.27;;
9823;SDS011;4951;50.778;7.196;2022-11-20T04:09:50;19.50;;;17.37;;
9823;SDS011;4951;50.778;7.196;2022-11-20T04:12:18;20.33;;;17.30;;
9823;SDS011;4951;50.778;7.196;2022-11-20T04:14:45;18.37;;;16.43;;
9823;SDS011;4951;50.778;7.196;2022-11-20T04:17:12;20.70;;;17.77;;
9823;SDS011;4951;50.778;7.196;2022-11-20T04:19:39;20.83;;;17.60;;
9823;SDS011;4951;50.778;7.196;2022-11-20T04:22:08;21.57;;;17.27;;
9823;SDS011;4951;50.778;7.196;2022-11-20T04:24:36;19.73;;;17.57;;
9823;SDS011;4951;50.778;7.196;2022-11-20T04:27:04;20.50;;;17.03;;
9823;SDS011;4951;50.778;7.196;2022-11-20T04:29:31;18.30;;;16.30;;
9823;SDS011;4951;50.778;7.196;2022-11-20T04:31:58;18.17;;;13.63;;
9823;SDS011;4951;50.778;7.196;2022-11-20T04:34:26;18.60;;;15.60;;
9823;SDS011;4951;50.778;7.196;2022-11-20T04:36:53;17.53;;;14.50;;
9823;SDS011;4951;50.778;7.196;2022-11-20T04:39:22;19.83;;;16.97;;
9823;SDS011;4951;50.778;7.196;2022-11-20T04:41:49;16.20;;;13.90;;
9823;SDS011;4951;50.778;7.196;2022-11-20T04:44:36;19.67;;;16.53;;
9823;SDS011;4951;50.778;7.196;2022-11-20T04:47:03;18.37;;;14.43;;
9823;SDS011;4951;50.778;7.196;2022-11-20T04:49:30;18.73;;;16.33;;
9823;SDS011;4951;50.778;7.196;2022-11-20T04:51:59;20.13;;;15.30;;
9823;SDS011;4951;50.778;7.196;2022-11-20T04:54:27;19.10;;;16.03;;
9823;SDS011;4951;50.778;7.196;2022-11-20T04:56:54;18.87;;;15.20;;
9823;SDS011;4951;50.778;7.196;2022-11-20T04:59:23;17.07;;;15.00;;
9823;SDS011;4951;50.778;7.196;2022-11-20T05:01:50;16.30;;;14.43;;
9823;SDS011;4951;50.778;7.196;2022-11-20T05:04:17;16.03;;;13.60;;
9823;SDS011;4951;50.778;7.196;2022-11-20T05:06:44;18.30;;;15.60;;
9823;SDS011;4951;50.778;7.196;2022-11-20T05:09:12;18.67;;;15.50;;
9823;SDS011;4951;50.778;7.196;2022-11-20T05:11:40;17.27;;;14.30;;
9823;SDS011;4951;50.778;7.196;2022-11-20T05:14:08;17.10;;;14.60;;
9823;SDS011;4951;50.778;7.196;2022-11-20T05:16:35;19.07;;;15.77;;
9823;SDS011;4951;50.778;7.196;2022-11-20T05:19:02;17.60;;;15.17;;
9823;SDS011;4951;50.778;7.196;2022-11-20T05:21:30;18.87;;;15.57;;
9823;SDS011;4951;50.778;7.196;2022-11-20T05:23:57;17.23;;;15.00;;
9823;SDS011;4951;50.778;7.196;2022-11-20T05:26:24;19.00;;;15.77;;
9823;SDS011;4951;50.778;7.196;2022-11-20T05:28:53;17.63;;;15.67;;
9823;SDS011;4951;50.778;7.196;2022-11-20T05:31:20;17.53;;;14.77;;
9823;SDS011;4951;50.778;7.196;2022-11-20T05:33:49;16.90;;;14.77;;
9823;SDS011;4951;50.778;7.196;2022-11-20T05:36:17;15.40;;;13.07;;
9823;SDS011;4951;50.778;7.196;2022-11-20T05:38:45;19.13;;;16.60;;
9823;SDS011;4951;50.778;7.196;2022-11-20T05:41:12;17.30;;;14.87;;
9823;SDS011;4951;50.778;7.196;2022-11-20T05:43:42;16.77;;;13.13;;
9823;SDS011;4951;50.778;7.196;2022-11-20T05:46:12;15.50;;;12.83;;
9823;SDS011;4951;50.778;7.196;2022-11-20T05:48:41;16.27;;;14.27;;
9823;SDS011;4951;50.778;7.196;2022-11-20T05:51:10;17.03;;;14.43;;
9823;SDS011;4951;50.778;7.196;2022-11-20T05:53:39;17.33;;;13.93;;
9823;SDS011;4951;50.778;7.196;2022-11-20T05:56:07;14.40;;;11.87;;
9823;SDS011;4951;50.778;7.196;2022-11-20T05:58:36;13.80;;;12.03;;
9823;SDS011;4951;50.778;7.196;2022-11-20T06:01:04;15.13;;;13.53;;
9823;SDS011;4951;50.778;7.196;2022-11-20T06:03:34;15.97;;;13.27;;
9823;SDS011;4951;50.778;7.196;2022-11-20T06:06:02;18.37;;;13.17;;
9823;SDS011;4951;50.778;7.196;2022-11-20T06:08:30;14.57;;;12.27;;
9823;SDS011;4951;50.778;7.196;2022-11-20T06:10:58;15.13;;;12.63;;
9823;SDS011;4951;50.778;7.196;2022-11-20T06:13:29;16.47;;;14.13;;
9823;SDS011;4951;50.778;7.196;2022-11-20T06:15:56;13.90;;;11.90;;
9823;SDS011;4951;50.778;7.196;2022-11-20T06:18:23;15.23;;;13.47;;
9823;SDS011;4951;50.778;7.196;2022-11-20T06:21:00;16.90;;;14.40;;
9823;SDS011;4951;50.778;7.196;2022-11-20T06:23:29;15.03;;;13.53;;
9823;SDS011;4951;50.778;7.196;2022-11-20T06:25:56;17.03;;;14.43;;
9823;SDS011;4951;50.778;7.196;2022-11-20T06:28:23;16.07;;;13.40;;
9823;SDS011;4951;50.778;7.196;2022-11-20T06:30:51;16.33;;;12.90;;
9823;SDS011;4951;50.778;7.196;2022-11-20T06:33:18;16.27;;;13.37;;
9823;SDS011;4951;50.778;7.196;2022-11-20T06:35:45;16.47;;;14.03;;
9823;SDS011;4951;50.778;7.196;2022-11-20T06:38:13;15.87;;;13.13;;
9823;SDS011;4951;50.778;7.196;2022-11-20T06:40:41;19.13;;;14.73;;
9823;SDS011;4951;50.778;7.196;2022-11-20T06:43:08;17.67;;;14.97;;
9823;SDS011;4951;50.778;7.196;2022-11-20T06:45:36;16.73;;;13.80;;
9823;SDS011;4951;50.778;7.196;2022-11-20T06:48:03;18.20;;;14.40;;
9823;SDS011;4951;50.778;7.196;2022-11-20T06:50:30;17.37;;;13.97;;
9823;SDS011;4951;50.778;7.196;2022-11-20T06:53:00;16.67;;;14.30;;
9823;SDS011;4951;50.778;7.196;2022-11-20T06:55:29;15.17;;;13.17;;
9823;SDS011;4951;50.778;7.196;2022-11-20T06:57:56;17.60;;;13.97;;
9823;SDS011;4951;50.778;7.196;2022-11-20T07:00:24;20.03;;;15.43;;
9823;SDS011;4951;50.778;7.196;2022-11-20T07:02:51;16.60;;;14.47;;
9823;SDS011;4951;50.778;7.196;2022-11-20T07:05:18;18.63;;;16.10;;
9823;SDS011;4951;50.778;7.196;2022-11-20T07:07:45;18.73;;;16.30;;
9823;SDS011;4951;50.778;7.196;2022-11-20T07:10:12;18.87;;;16.57;;
9823;SDS011;4951;50.778;7.196;2022-11-20T07:12:41;18.60;;;15.63;;
9823;SDS011;4951;50.778;7.196;2022-11-20T07:15:08;19.27;;;15.77;;
9823;SDS011;4951;50.778;7.196;2022-11-20T07:17:35;20.33;;;16.60;;
9823;SDS011;4951;50.778;7.196;2022-11-20T07:20:04;19.37;;;16.27;;
9823;SDS011;4951;50.778;7.196;2022-11-20T07:22:31;19.87;;;16.73;;
9823;SDS011;4951;50.778;7.196;2022-11-20T07:24:58;20.47;;;16.23;;
9823;SDS011;4951;50.778;7.196;2022-11-20T07:27:26;19.13;;;17.03;;
9823;SDS011;4951;50.778;7.196;2022-11-20T07:29:56;18.33;;;14.87;;
9823;SDS011;4951;50.778;7.196;2022-11-20T07:32:23;17.30;;;14.17;;
9823;SDS011;4951;50.778;7.196;2022-11-20T07:34:51;18.83;;;16.03;;
9823;SDS011;4951;50.778;7.196;2022-11-20T07:37:21;20.47;;;17.17;;
9823;SDS011;4951;50.778;7.196;2022-11-20T07:39:53;20.40;;;16.50;;
9823;SDS011;4951;50.778;7.196;2022-11-20T07:42:20;21.33;;;16.83;;
9823;SDS011;4951;50.778;7.196;2022-11-20T07:44:50;18.73;;;14.87;;
9823;SDS011;4951;50.778;7.196;2022-11-20T07:47:19;20.73;;;16.33;;
9823;SDS011;4951;50.778;7.196;2022-11-20T07:49:47;39.10;;;26.47;;
9823;SDS011;4951;50.778;7.196;2022-11-20T07:52:14;27.67;;;19.40;;
9823;SDS011;4951;50.778;7.196;2022-11-20T07:54:42;36.20;;;27.43;;
9823;SDS011;4951;50.778;7.196;2022-11-20T07:57:11;23.47;;;20.47;;
9823;SDS011;4951;50.778;7.196;2022-11-20T07:59:38;22.23;;;17.83;;
9823;SDS011;4951;50.778;7.196;2022-11-20T08:02:09;21.87;;;17.40;;
9823;SDS011;4951;50.778;7.196;2022-11-20T08:04:38;23.40;;;19.07;;
9823;SDS011;4951;50.778;7.196;2022-11-20T08:07:06;23.00;;;19.00;;
9823;SDS011;4951;50.778;7.196;2022-11-20T08:09:33;20.90;;;17.13;;
9823;SDS011;4951;50.778;7.196;2022-11-20T08:12:00;21.10;;;17.20;;
9823;SDS011;4951;50.778;7.196;2022-11-20T08:14:45;21.53;;;17.43;;
9823;SDS011;4951;50.778;7.196;2022-11-20T08:17:12;19.83;;;16.90;;
9823;SDS011;4951;50.778;7.196;2022-11-20T08:19:40;19.53;;;17.23;;
9823;SDS011;4951;50.778;7.196;2022-11-20T08:22:08;21.30;;;17.57;;
9823;SDS011;4951;50.778;7.196;2022-11-20T08:24:35;21.83;;;17.93;;
9823;SDS011;4951;50.778;7.196;2022-11-20T08:27:02;21.00;;;18.37;;
9823;SDS011;4951;50.778;7.196;2022-11-20T08:29:29;24.33;;;19.40;;
9823;SDS011;4951;50.778;7.196;2022-11-20T08:31:57;25.33;;;19.23;;
9823;SDS011;4951;50.778;7.196;2022-11-20T08:34:25;24.77;;;19.87;;
9823;SDS011;4951;50.778;7.196;2022-11-20T08:36:53;25.53;;;20.37;;
9823;SDS011;4951;50.778;7.196;2022-11-20T08:39:21;25.00;;;19.87;;
9823;SDS011;4951;50.778;7.196;2022-11-20T08:41:48;21.30;;;18.43;;
9823;SDS011;4951;50.778;7.196;2022-11-20T08:44:15;23.83;;;18.73;;
9823;SDS011;4951;50.778;7.196;2022-11-20T08:46:42;24.17;;;19.07;;
9823;SDS011;4951;50.778;7.196;2022-11-20T08:49:11;26.77;;;20.80;;
9823;SDS011;4951;50.778;7.196;2022-11-20T08:51:40;25.37;;;19.90;;
9823;SDS011;4951;50.778;7.196;2022-11-20T08:54:09;26.60;;;20.97;;
9823;SDS011;4951;50.778;7.196;2022-11-20T08:56:36;25.10;;;20.07;;
9823;SDS011;4951;50.778;7.196;2022-11-20T08:59:04;27.23;;;20.83;;
9823;SDS011;4951;50.778;7.196;2022-11-20T09:01:31;29.50;;;22.53;;
9823;SDS011;4951;50.778;7.196;2022-11-20T09:03:58;26.90;;;21.17;;
9823;SDS011;4951;50.778;7.196;2022-11-20T09:06:26;23.27;;;19.77;;
9823;SDS011;4951;50.778;7.196;2022-11-20T09:08:53;27.97;;;20.20;;
9823;SDS011;4951;50.778;7.196;2022-11-20T09:11:23;24.57;;;20.57;;
9823;SDS011;4951;50.778;7.196;2022-11-20T09:13:50;27.40;;;21.07;;
9823;SDS011;4951;50.778;7.196;2022-11-20T09:16:18;25.00;;;20.53;;
9823;SDS011;4951;50.778;7.196;2022-11-20T09:18:45;24.77;;;19.60;;
9823;SDS011;4951;50.778;7.196;2022-11-20T09:21:14;25.20;;;19.63;;
9823;SDS011;4951;50.778;7.196;2022-11-20T09:23:42;21.33;;;17.60;;
9823;SDS011;4951;50.778;7.196;2022-11-20T09:26:14;22.73;;;18.77;;
9823;SDS011;4951;50.778;7.196;2022-11-20T09:28:50;23.47;;;16.37;;
9823;SDS011;4951;50.778;7.196;2022-11-20T09:31:21;23.23;;;18.07;;
9823;SDS011;4951;50.778;7.196;2022-11-20T09:33:50;22.30;;;19.33;;
9823;SDS011;4951;50.778;7.196;2022-11-20T09:36:19;24.60;;;19.60;;
9823;SDS011;4951;50.778;7.196;2022-11-20T09:38:47;24.57;;;19.47;;
9823;SDS011;4951;50.778;7.196;2022-11-20T09:41:21;23.87;;;19.70;;
9823;SDS011;4951;50.778;7.196;2022-11-20T09:44:03;25.40;;;20.30;;
9823;SDS011;4951;50.778;7.196;2022-11-20T09:46:38;23.50;;;18.37;;
9823;SDS011;4951;50.778;7.196;2022-11-20T09:49:15;27.00;;;19.30;;
9823;SDS011;4951;50.778;7.196;2022-11-20T09:51:51;25.47;;;19.63;;
9823;SDS011;4951;50.778;7.196;2022-11-20T09:54:26;25.77;;;19.57;;
9823;SDS011;4951;50.778;7.196;2022-11-20T09:57:00;24.23;;;17.23;;
9823;SDS011;4951;50.778;7.196;2022-11-20T09:59:38;22.20;;;18.33;;
9823;SDS011;4951;50.778;7.196;2022-11-20T10:02:12;24.17;;;19.27;;
9823;SDS011;4951;50.778;7.196;2022-11-20T10:04:44;24.67;;;19.83;;
9823;SDS011;4951;50.778;7.196;2022-11-20T10:07:20;22.40;;;18.50;;
9823;SDS011;4951;50.778;7.196;2022-11-20T10:09:58;25.00;;;20.23;;
9823;SDS011;4951;50.778;7.196;2022-11-20T10:12:48;25.27;;;19.83;;
9823;SDS011;4951;50.778;7.196;2022-11-20T10:15:37;25.17;;;19.40;;
9823;SDS011;4951;50.778;7.196;2022-11-20T10:18:18;23.50;;;19.90;;
9823;SDS011;4951;50.778;7.196;2022-11-20T10:21:02;26.23;;;20.90;;
9823;SDS011;4951;50.778;7.196;2022-11-20T10:23:45;24.93;;;19.30;;
9823;SDS011;4951;50.778;7.196;2022-11-20T10:26:29;27.17;;;21.33;;
9823;SDS011;4951;50.778;7.196;2022-11-20T10:29:07;25.17;;;17.80;;
9823;SDS011;4951;50.778;7.196;2022-11-20T10:31:40;24.20;;;19.77;;
9823;SDS011;4951;50.778;7.196;2022-11-20T10:34:13;23.63;;;19.10;;
9823;SDS011;4951;50.778;7.196;2022-11-20T10:36:47;25.23;;;20.00;;
9823;SDS011;4951;50.778;7.196;2022-11-20T10:39:26;22.70;;;18.13;;
9823;SDS011;4951;50.778;7.196;2022-11-20T10:42:00;23.07;;;17.50;;
9823;SDS011;4951;50.778;7.196;2022-11-20T10:44:28;23.37;;;18.87;;
9823;SDS011;4951;50.778;7.196;2022-11-20T10:47:45;40.40;;;19.00;;
9823;SDS011;4951;50.778;7.196;2022-11-20T10:50:14;26.17;;;19.23;;
9823;SDS011;4951;50.778;7.196;2022-11-20T10:52:49;28.63;;;20.00;;
9823;SDS011;4951;50.778;7.196;2022-11-20T10:55:25;24.83;;;18.67;;
9823;SDS011;4951;50.778;7.196;2022-11-20T10:58:00;23.77;;;18.80;;
9823;SDS011;4951;50.778;7.196;2022-11-20T11:00:32;25.07;;;21.17;;
9823;SDS011;4951;50.778;7.196;2022-11-20T11:03:01;26.17;;;20.73;;
9823;SDS011;4951;50.778;7.196;2022-11-20T11:08:23;24.50;;;20.63;;
9823;SDS011;4951;50.778;7.196;2022-11-20T11:10:55;26.23;;;19.50;;
9823;SDS011;4951;50.778;7.196;2022-11-20T11:13:26;25.03;;;20.27;;
9823;SDS011;4951;50.778;7.196;2022-11-20T11:15:54;26.27;;;20.30;;
9823;SDS011;4951;50.778;7.196;2022-11-20T11:18:24;22.70;;;18.90;;
9823;SDS011;4951;50.778;7.196;2022-11-20T11:20:53;22.17;;;16.70;;
9823;SDS011;4951;50.778;7.196;2022-11-20T11:23:28;22.60;;;19.23;;
9823;SDS011;4951;50.778;7.196;2022-11-20T11:25:58;21.93;;;18.87;;
9823;SDS011;4951;50.778;7.196;2022-11-20T11:28:27;25.30;;;19.00;;
9823;SDS011;4951;50.778;7.196;2022-11-20T11:30:56;22.70;;;18.60;;
9823;SDS011;4951;50.778;7.196;2022-11-20T11:33:25;20.33;;;16.50;;
9823;SDS011;4951;50.778;7.196;2022-11-20T11:35:53;23.57;;;19.17;;
9823;SDS011;4951;50.778;7.196;2022-11-20T11:38:27;21.27;;;17.37;;
9823;SDS011;4951;50.778;7.196;2022-11-20T11:40:57;21.30;;;17.93;;
9823;SDS011;4951;50.778;7.196;2022-11-20T11:43:25;24.20;;;18.40;;
9823;SDS011;4951;50.778;7.196;2022-11-20T11:46:28;21.07;;;16.10;;
9823;SDS011;4951;50.778;7.196;2022-11-20T11:48:59;20.93;;;16.53;;
9823;SDS011;4951;50.778;7.196;2022-11-20T11:51:29;23.83;;;18.60;;
9823;SDS011;4951;50.778;7.196;2022-11-20T11:54:01;21.30;;;17.87;;
9823;SDS011;4951;50.778;7.196;2022-11-20T11:56:35;27.07;;;18.70;;
9823;SDS011;4951;50.778;7.196;2022-11-20T11:59:04;27.27;;;18.93;;
9823;SDS011;4951;50.778;7.196;2022-11-20T12:01:37;21.77;;;17.80;;
9823;SDS011;4951;50.778;7.196;2022-11-20T12:04:13;23.03;;;17.63;;
9823;SDS011;4951;50.778;7.196;2022-11-20T12:06:48;21.00;;;17.80;;
9823;SDS011;4951;50.778;7.196;2022-11-20T12:09:20;25.80;;;21.63;;
9823;SDS011;4951;50.778;7.196;2022-11-20T12:11:55;24.77;;;18.87;;
9823;SDS011;4951;50.778;7.196;2022-11-20T12:14:33;30.97;;;24.40;;
9823;SDS011;4951;50.778;7.196;2022-11-20T12:17:03;36.80;;;30.60;;
9823;SDS011;4951;50.778;7.196;2022-11-20T12:19:34;28.97;;;24.60;;
9823;SDS011;4951;50.778;7.196;2022-11-20T12:22:05;24.20;;;20.40;;
9823;SDS011;4951;50.778;7.196;2022-11-20T12:24:55;28.67;;;21.73;;
9823;SDS011;4951;50.778;7.196;2022-11-20T12:27:35;26.10;;;20.63;;
9823;SDS011;4951;50.778;7.196;2022-11-20T12:30:20;23.43;;;18.60;;
9823;SDS011;4951;50.778;7.196;2022-11-20T12:33:05;25.33;;;21.07;;
9823;SDS011;4951;50.778;7.196;2022-11-20T12:35:55;28.67;;;24.27;;
9823;SDS011;4951;50.778;7.196;2022-11-20T12:48:26;21.40;;;18.00;;
9823;SDS011;4951;50.778;7.196;2022-11-20T12:51:54;20.70;;;17.47;;
9823;SDS011;4951;50.778;7.196;2022-11-20T12:54:56;25.63;;;18.20;;
9823;SDS011;4951;50.778;7.196;2022-11-20T12:57:46;22.40;;;17.57;;
9823;SDS011;4951;50.778;7.196;2022-11-20T13:00:21;20.10;;;17.10;;
9823;SDS011;4951;50.778;7.196;2022-11-20T13:03:05;22.27;;;17.93;;
9823;SDS011;4951;50.778;7.196;2022-11-20T13:05:55;21.40;;;17.43;;
9823;SDS011;4951;50.778;7.196;2022-11-20T13:08:34;22.20;;;17.40;;
9823;SDS011;4951;50.778;7.196;2022-11-20T13:11:06;21.90;;;17.63;;
9823;SDS011;4951;50.778;7.196;2022-11-20T13:13:42;23.07;;;18.13;;
9823;SDS011;4951;50.778;7.196;2022-11-20T13:16:24;21.50;;;17.73;;
9823;SDS011;4951;50.778;7.196;2022-11-20T13:19:01;21.70;;;16.50;;
9823;SDS011;4951;50.778;7.196;2022-11-20T13:21:35;20.47;;;16.33;;
9823;SDS011;4951;50.778;7.196;2022-11-20T13:24:06;19.67;;;17.23;;
9823;SDS011;4951;50.778;7.196;2022-11-20T13:26:48;19.53;;;16.63;;
9823;SDS011;4951;50.778;7.196;2022-11-20T13:29:27;20.60;;;16.53;;
9823;SDS011;4951;50.778;7.196;2022-11-20T13:32:04;20.17;;;16.40;;
9823;SDS011;4951;50.778;7.196;2022-11-20T13:34:50;19.67;;;16.27;;
9823;SDS011;4951;50.778;7.196;2022-11-20T13:37:31;22.80;;;18.13;;
9823;SDS011;4951;50.778;7.196;2022-11-20T13:40:19;20.53;;;16.93;;
9823;SDS011;4951;50.778;7.196;2022-11-20T13:43:00;21.33;;;17.57;;
9823;SDS011;4951;50.778;7.196;2022-11-20T13:45:39;20.03;;;16.03;;
9823;SDS011;4951;50.778;7.196;2022-11-20T13:48:19;21.60;;;15.87;;
9823;SDS011;4951;50.778;7.196;2022-11-20T13:51:02;24.30;;;19.13;;
9823;SDS011;4951;50.778;7.196;2022-11-20T13:53:47;20.17;;;15.13;;
9823;SDS011;4951;50.778;7.196;2022-11-20T13:56:59;21.30;;;16.73;;
9823;SDS011;4951;50.778;7.196;2022-11-20T14:02:42;20.20;;;17.13;;
9823;SDS011;4951;50.778;7.196;2022-11-20T14:05:16;21.77;;;17.10;;
9823;SDS011;4951;50.778;7.196;2022-11-20T14:07:49;23.30;;;17.73;;
9823;SDS011;4951;50.778;7.196;2022-11-20T14:10:22;20.70;;;17.00;;
9823;SDS011;4951;50.778;7.196;2022-11-20T14:13:12;22.93;;;17.10;;
9823;SDS011;4951;50.778;7.196;2022-11-20T14:15:56;21.80;;;17.40;;
9823;SDS011;4951;50.778;7.196;2022-11-20T14:18:38;22.00;;;16.50;;
9823;SDS011;4951;50.778;7.196;2022-11-20T14:21:11;25.17;;;18.33;;
9823;SDS011;4951;50.778;7.196;2022-11-20T14:23:48;20.23;;;16.10;;
9823;SDS011;4951;50.778;7.196;2022-11-20T14:26:18;21.70;;;16.10;;
9823;SDS011;4951;50.778;7.196;2022-11-20T14:28:49;20.43;;;16.07;;
9823;SDS011;4951;50.778;7.196;2022-11-20T14:31:22;63.80;;;19.83;;
9823;SDS011;4951;50.778;7.196;2022-11-20T14:33:53;25.37;;;17.43;;
9823;SDS011;4951;50.778;7.196;2022-11-20T14:36:25;19.57;;;16.10;;
9823;SDS011;4951;50.778;7.196;2022-11-20T14:38:56;20.10;;;15.80;;
9823;SDS011;4951;50.778;7.196;2022-11-20T14:41:23;20.60;;;15.87;;
9823;SDS011;4951;50.778;7.196;2022-11-20T14:43:53;20.43;;;16.53;;
9823;SDS011;4951;50.778;7.196;2022-11-20T14:46:33;17.80;;;14.53;;
9823;SDS011;4951;50.778;7.196;2022-11-20T14:49:01;19.63;;;16.20;;
9823;SDS011;4951;50.778;7.196;2022-11-20T14:51:30;22.03;;;16.73;;
9823;SDS011;4951;50.778;7.196;2022-11-20T14:54:09;21.57;;;16.67;;
9823;SDS011;4951;50.778;7.196;2022-11-20T14:56:37;19.87;;;16.37;;
9823;SDS011;4951;50.778;7.196;2022-11-20T14:59:06;23.13;;;17.17;;
9823;SDS011;4951;50.778;7.196;2022-11-20T15:01:35;21.33;;;17.07;;
9823;SDS011;4951;50.778;7.196;2022-11-20T15:04:05;18.60;;;15.50;;
9823;SDS011;4951;50.778;7.196;2022-11-20T15:06:33;21.43;;;17.57;;
9823;SDS011;4951;50.778;7.196;2022-11-20T15:09:01;20.87;;;18.07;;
9823;SDS011;4951;50.778;7.196;2022-11-20T15:11:31;22.33;;;17.27;;
9823;SDS011;4951;50.778;7.196;2022-11-20T15:14:01;18.83;;;14.53;;
9823;SDS011;4951;50.778;7.196;2022-11-20T15:16:31;21.30;;;15.67;;
9823;SDS011;4951;50.778;7.196;2022-11-20T15:19:00;20.17;;;15.50;;
9823;SDS011;4951;50.778;7.196;2022-11-20T15:21:34;22.53;;;17.23;;
9823;SDS011;4951;50.778;7.196;2022-11-20T15:24:01;21.30;;;16.93;;
9823;SDS011;4951;50.778;7.196;2022-11-20T15:26:29;19.23;;;15.63;;
9823;SDS011;4951;50.778;7.196;2022-11-20T15:28:57;16.80;;;14.13;;
9823;SDS011;4951;50.778;7.196;2022-11-20T15:31:24;16.27;;;11.70;;